Terminal Aerodrome Forecast
Issued by NWS

Home | Current Version | Previous Version | Text Only | Print | Product List | Glossary On
Versions: 1 2 3 4 5 6 7 8 9 10 11 12 13 14 15 16 17 18
000
FTUS41 KBOX 261120
TAFACK
TAF
KACK 261120Z 2612/2712 11019G26KT 5SM BR BKN003 OVC024
      WS020/15050KT
     FM261400 13019G27KT 3SM -DZ BR VCSH OVC003 WS020/16050KT
     FM261700 14017G24KT 2SM -DZ BR VCSH OVC003
     FM271100 19004KT 2SM -DZ BR OVC003=

USA.gov is the U.S. government's official web portal to all federal, state and local government web resources and services.